createdAt,value
2023-11-12T00:00:39.384Z,7.47
2023-11-12T00:03:06.354Z,7.46
2023-11-12T00:05:33.290Z,7.47
2023-11-12T00:08:00.169Z,7.48
2023-11-12T00:10:27.549Z,7.49
2023-11-12T00:12:54.457Z,7.50
2023-11-12T00:15:22.147Z,7.50
2023-11-12T00:17:50.985Z,7.48
2023-11-12T00:20:19.094Z,7.47
2023-11-12T00:22:46.094Z,7.44
2023-11-12T00:25:14.969Z,7.40
2023-11-12T00:27:42.501Z,7.37
2023-11-12T00:30:10.986Z,7.34
2023-11-12T00:32:38.228Z,7.35
2023-11-12T00:35:06.715Z,7.31
2023-11-12T00:37:34.206Z,7.31
2023-11-12T00:40:01.346Z,7.25
2023-11-12T00:42:29.208Z,7.20
2023-11-12T00:44:56.538Z,7.19
2023-11-12T00:47:24.800Z,7.18
2023-11-12T00:49:52.298Z,7.14
2023-11-12T00:52:19.257Z,7.13
2023-11-12T00:54:47.579Z,7.10
2023-11-12T00:57:14.521Z,7.11
2023-11-12T00:59:42.212Z,7.08
2023-11-12T01:02:11.349Z,7.06
2023-11-12T01:04:38.313Z,7.05
2023-11-12T01:07:05.214Z,7.03
2023-11-12T01:09:32.112Z,7.04
2023-11-12T01:11:59.025Z,6.99
2023-11-12T01:14:27.071Z,6.97
2023-11-12T01:16:54.294Z,6.95
2023-11-12T01:19:21.247Z,6.95
2023-11-12T01:21:48.152Z,6.92
2023-11-12T01:24:15.067Z,6.91
2023-11-12T01:26:41.944Z,6.85
2023-11-12T01:29:08.759Z,6.86
2023-11-12T01:31:35.655Z,6.83
2023-11-12T01:34:02.818Z,6.84
2023-11-12T01:36:29.791Z,6.82
2023-11-12T01:38:56.772Z,6.82
2023-11-12T01:41:23.687Z,6.80
2023-11-12T01:43:50.570Z,6.79
2023-11-12T01:46:20.135Z,6.75
2023-11-12T01:48:48.699Z,6.73
2023-11-12T01:51:16.799Z,6.69
2023-11-12T01:53:43.785Z,6.68
2023-11-12T01:56:13.080Z,6.67
2023-11-12T01:58:42.616Z,6.63
2023-11-12T02:01:09.578Z,6.63
2023-11-12T02:03:38.453Z,6.60
2023-11-12T02:06:06.813Z,6.59
2023-11-12T02:08:37.554Z,6.57
2023-11-12T02:11:08.850Z,6.57
2023-11-12T02:13:38.487Z,6.45
2023-11-12T02:16:06.694Z,6.53
2023-11-12T02:18:33.997Z,6.52
2023-11-12T02:21:04.140Z,6.52
2023-11-12T02:23:31.562Z,6.51
2023-11-12T02:25:59.512Z,6.50
2023-11-12T02:28:26.387Z,6.52
2023-11-12T02:30:56.404Z,6.54
2023-11-12T02:33:29.031Z,6.53
2023-11-12T02:35:59.276Z,6.54
2023-11-12T02:38:26.379Z,6.55
2023-11-12T02:40:53.596Z,6.55
2023-11-12T02:43:21.519Z,6.56
2023-11-12T02:45:49.318Z,6.56
2023-11-12T02:48:16.416Z,6.55
2023-11-12T02:50:44.465Z,6.55
2023-11-12T02:53:13.272Z,6.54
2023-11-12T02:55:40.778Z,6.52
2023-11-12T02:58:11.874Z,6.48
2023-11-12T03:00:39.419Z,6.49
2023-11-12T03:03:06.624Z,6.47
2023-11-12T03:05:33.538Z,6.47
2023-11-12T03:08:00.636Z,6.45
2023-11-12T03:10:29.110Z,6.44
2023-11-12T03:12:56.104Z,6.42
2023-11-12T03:15:25.465Z,6.41
2023-11-12T03:17:53.004Z,6.41
2023-11-12T03:20:20.710Z,6.41
2023-11-12T03:22:47.746Z,6.38
2023-11-12T03:25:15.977Z,6.33
2023-11-12T03:27:43.228Z,6.34
2023-11-12T03:30:14.471Z,6.36
2023-11-12T03:32:41.965Z,6.38
2023-11-12T03:35:09.797Z,6.35
2023-11-12T03:37:39.167Z,6.35
2023-11-12T03:40:07.157Z,6.34
2023-11-12T03:42:34.044Z,6.35
2023-11-12T03:45:01.034Z,6.32
2023-11-12T03:47:32.048Z,6.29
2023-11-12T03:50:00.127Z,6.27
2023-11-12T03:52:27.115Z,6.26
2023-11-12T03:54:54.046Z,6.27
2023-11-12T03:57:21.636Z,6.26
2023-11-12T03:59:53.295Z,6.28
2023-11-12T04:02:22.680Z,6.21
2023-11-12T04:04:49.789Z,6.30
2023-11-12T04:07:17.843Z,6.33
2023-11-12T04:09:44.797Z,6.31
2023-11-12T04:12:12.914Z,6.32
2023-11-12T04:14:40.100Z,6.30
2023-11-12T04:17:07.128Z,6.28
2023-11-12T04:19:35.078Z,6.18
2023-11-12T04:22:02.030Z,6.28
2023-11-12T04:24:29.372Z,6.24
2023-11-12T04:26:57.231Z,6.24
2023-11-12T04:29:24.721Z,6.21
2023-11-12T04:31:51.595Z,6.20
2023-11-12T04:34:18.450Z,6.18
2023-11-12T04:36:45.491Z,6.12
2023-11-12T04:39:12.710Z,6.06
2023-11-12T04:41:39.544Z,6.05
2023-11-12T04:44:06.785Z,6.05
2023-11-12T04:46:35.032Z,6.04
2023-11-12T04:49:02.309Z,5.99
2023-11-12T04:51:29.375Z,5.99
2023-11-12T04:53:56.249Z,5.97
2023-11-12T04:56:23.105Z,5.97
2023-11-12T04:58:50.605Z,5.96
2023-11-12T05:01:18.282Z,5.92
2023-11-12T05:03:46.333Z,5.92
2023-11-12T05:06:13.366Z,5.90
2023-11-12T05:08:41.702Z,5.89
2023-11-12T05:11:09.530Z,5.87
2023-11-12T05:13:39.407Z,5.87
2023-11-12T05:16:06.831Z,5.87
2023-11-12T05:18:33.839Z,5.86
2023-11-12T05:21:00.816Z,5.87
2023-11-12T05:23:27.814Z,5.90
2023-11-12T05:25:56.161Z,5.90
2023-11-12T05:28:24.743Z,5.90
2023-11-12T05:30:51.718Z,5.91
2023-11-12T05:33:18.696Z,5.91
2023-11-12T05:35:45.815Z,5.89
2023-11-12T05:38:12.717Z,5.89
2023-11-12T05:40:40.215Z,5.92
2023-11-12T05:43:07.253Z,5.92
2023-11-12T05:45:34.226Z,5.95
2023-11-12T05:48:01.366Z,5.96
2023-11-12T05:50:28.234Z,6.00
2023-11-12T05:52:55.087Z,6.02
2023-11-12T05:55:22.052Z,6.07
2023-11-12T05:57:49.014Z,6.12
2023-11-12T06:00:16.531Z,6.18
2023-11-12T06:02:43.453Z,6.24
2023-11-12T06:05:10.486Z,6.30
2023-11-12T06:07:37.377Z,6.36
2023-11-12T06:10:04.776Z,6.42
2023-11-12T06:12:31.932Z,6.49
2023-11-12T06:14:58.909Z,6.54
2023-11-12T06:17:26.323Z,6.61
2023-11-12T06:19:53.974Z,6.65
2023-11-12T06:22:21.491Z,6.74
2023-11-12T06:24:48.632Z,6.78
2023-11-12T06:27:15.632Z,6.92
2023-11-12T06:29:43.406Z,7.10
2023-11-12T06:32:10.214Z,7.24
2023-11-12T06:34:37.132Z,7.42
2023-11-12T06:37:04.407Z,7.66
2023-11-12T06:39:32.161Z,7.94
2023-11-12T06:42:00.071Z,8.17
2023-11-12T06:44:27.334Z,8.40
2023-11-12T06:46:54.296Z,8.59
2023-11-12T06:49:21.166Z,8.75
2023-11-12T06:51:48.084Z,8.91
2023-11-12T06:54:15.071Z,9.14
2023-11-12T06:56:42.103Z,9.43
2023-11-12T06:59:09.056Z,9.73
2023-11-12T07:01:37.078Z,9.97
2023-11-12T07:04:06.023Z,10.07
2023-11-12T07:06:33.103Z,10.21
2023-11-12T07:09:00.221Z,10.36
2023-11-12T07:11:27.203Z,10.53
2023-11-12T07:13:54.017Z,10.72
2023-11-12T07:16:21.773Z,10.88
2023-11-12T07:18:54.083Z,11.08
2023-11-12T07:21:30.346Z,11.09
2023-11-12T07:23:58.349Z,11.35
2023-11-12T07:26:25.889Z,11.55
2023-11-12T07:28:54.248Z,11.83
2023-11-12T07:31:24.557Z,12.11
2023-11-12T07:33:52.872Z,12.31
2023-11-12T07:36:22.045Z,12.32
2023-11-12T07:38:49.290Z,12.34
2023-11-12T07:41:16.188Z,12.43
2023-11-12T07:43:43.209Z,12.43
2023-11-12T07:46:10.249Z,12.61
2023-11-12T07:48:37.769Z,12.63
2023-11-12T07:51:05.003Z,12.59
2023-11-12T07:53:31.885Z,12.62
2023-11-12T07:55:58.814Z,12.43
2023-11-12T07:58:25.936Z,12.08
2023-11-12T08:00:53.008Z,12.02
2023-11-12T08:03:21.919Z,11.88
2023-11-12T08:05:49.735Z,11.89
2023-11-12T08:08:16.705Z,11.81
2023-11-12T08:10:43.634Z,11.73
2023-11-12T08:13:10.559Z,11.79
2023-11-12T08:15:37.600Z,11.88
2023-11-12T08:18:07.184Z,11.87
2023-11-12T08:20:37.258Z,11.77
2023-11-12T08:23:04.796Z,11.87
2023-11-12T08:25:31.688Z,11.95
2023-11-12T08:27:58.579Z,11.89
2023-11-12T08:30:26.138Z,12.09
2023-11-12T08:32:53.493Z,12.17
2023-11-12T08:35:20.499Z,11.94
2023-11-12T08:37:48.442Z,11.74
2023-11-12T08:40:19.963Z,11.36
2023-11-12T08:42:47.697Z,11.15
2023-11-12T08:45:15.575Z,11.06
2023-11-12T08:47:42.589Z,10.80
2023-11-12T08:50:10.606Z,10.68
2023-11-12T08:52:39.303Z,10.59
2023-11-12T08:55:10.178Z,10.53
2023-11-12T08:57:37.231Z,10.47
2023-11-12T09:00:07.799Z,10.37
2023-11-12T09:02:35.017Z,10.31
2023-11-12T09:05:05.678Z,10.25
2023-11-12T09:07:32.669Z,10.15
2023-11-12T09:09:59.950Z,10.11
2023-11-12T09:12:26.865Z,10.03
2023-11-12T09:14:54.032Z,9.96
2023-11-12T09:17:20.901Z,9.82
2023-11-12T09:19:47.766Z,9.80
2023-11-12T09:22:15.049Z,9.83
2023-11-12T09:24:59.859Z,9.86
2023-11-12T09:27:32.073Z,9.88
2023-11-12T09:30:00.810Z,9.99
2023-11-12T09:32:27.741Z,10.13
2023-11-12T09:34:54.602Z,10.25
2023-11-12T09:37:21.418Z,10.36
2023-11-12T09:39:48.284Z,10.39
2023-11-12T09:42:22.893Z,10.52
2023-11-12T09:44:51.514Z,10.63
2023-11-12T09:47:50.082Z,10.65
2023-11-12T09:50:17.993Z,10.79
2023-11-12T09:52:47.762Z,10.85
2023-11-12T09:55:17.870Z,10.75
2023-11-12T09:57:47.349Z,10.76
2023-11-12T10:00:15.152Z,10.58
2023-11-12T10:02:42.696Z,10.53
2023-11-12T10:05:12.479Z,10.65
2023-11-12T10:07:40.072Z,10.71
2023-11-12T10:10:30.773Z,10.82
2023-11-12T10:12:59.740Z,10.98
2023-11-12T10:15:33.797Z,10.86
2023-11-12T10:18:02.579Z,10.88
2023-11-12T10:20:38.690Z,11.00
2023-11-12T10:23:07.652Z,11.15
2023-11-12T10:25:40.738Z,11.24
2023-11-12T10:28:09.429Z,11.35
2023-11-12T10:30:39.187Z,11.43
2023-11-12T10:33:16.789Z,11.43
2023-11-12T10:35:44.298Z,11.56
2023-11-12T10:38:11.806Z,11.50
2023-11-12T10:40:59.276Z,11.42
2023-11-12T10:43:26.899Z,11.49
2023-11-12T10:46:05.888Z,11.45
2023-11-12T10:48:38.170Z,11.46
2023-11-12T10:51:07.471Z,11.42
2023-11-12T10:53:37.393Z,11.42
2023-11-12T10:56:08.330Z,11.48
2023-11-12T10:58:36.385Z,11.52
2023-11-12T11:01:06.108Z,11.46
2023-11-12T11:03:35.195Z,11.37
2023-11-12T11:06:07.112Z,11.31
2023-11-12T11:08:37.369Z,11.35
2023-11-12T11:11:09.505Z,11.37
2023-11-12T11:13:38.623Z,11.34
2023-11-12T11:16:06.735Z,11.40
2023-11-12T11:18:34.087Z,11.42
2023-11-12T11:21:19.325Z,11.38
2023-11-12T11:23:56.930Z,11.34
2023-11-12T11:26:33.368Z,11.40
2023-11-12T11:29:06.591Z,11.40
2023-11-12T11:31:33.945Z,11.15
2023-11-12T11:34:01.930Z,11.35
2023-11-12T11:36:28.993Z,11.33
2023-11-12T11:39:26.477Z,11.11
2023-11-12T11:41:53.530Z,11.17
2023-11-12T11:44:39.309Z,11.04
2023-11-12T11:47:09.240Z,11.10
2023-11-12T11:49:36.522Z,11.16
2023-11-12T11:52:03.534Z,11.18
2023-11-12T11:54:30.886Z,11.17
2023-11-12T11:57:02.426Z,11.11
2023-11-12T11:59:36.705Z,11.13
2023-11-12T12:02:07.132Z,11.25
2023-11-12T12:04:34.516Z,11.33
2023-11-12T12:07:01.585Z,11.41
2023-11-12T12:09:28.688Z,11.44
2023-11-12T12:11:56.264Z,11.45
2023-11-12T12:14:25.590Z,11.46
2023-11-12T12:16:52.779Z,11.44
2023-11-12T12:19:22.563Z,11.40
2023-11-12T12:21:51.912Z,11.35
2023-11-12T12:24:22.621Z,11.31
2023-11-12T12:26:50.077Z,11.29
2023-11-12T12:29:19.557Z,11.29
2023-11-12T12:31:46.997Z,11.26
2023-11-12T12:34:17.608Z,11.25
2023-11-12T12:37:04.287Z,11.18
2023-11-12T12:39:48.660Z,11.15
2023-11-12T12:42:16.082Z,11.27
2023-11-12T12:44:50.477Z,11.25
2023-11-12T12:47:35.239Z,11.25
2023-11-12T12:50:34.132Z,11.27
2023-11-12T12:53:23.720Z,11.26
2023-11-12T12:55:52.871Z,11.38
2023-11-12T12:58:20.727Z,11.40
2023-11-12T13:00:47.745Z,11.43
2023-11-12T13:03:32.322Z,11.48
2023-11-12T13:05:59.707Z,11.52
2023-11-12T13:08:27.045Z,11.49
2023-11-12T13:10:55.674Z,11.49
2023-11-12T13:13:23.124Z,11.49
2023-11-12T13:15:50.168Z,11.48
2023-11-12T13:18:19.119Z,11.46
2023-11-12T13:20:46.680Z,11.43
2023-11-12T13:23:13.741Z,11.44
2023-11-12T13:25:43.158Z,11.42
2023-11-12T13:28:13.126Z,11.46
2023-11-12T13:30:40.259Z,11.48
2023-11-12T13:33:08.980Z,11.42
2023-11-12T13:35:36.617Z,11.36
2023-11-12T13:38:03.639Z,11.31
2023-11-12T13:40:31.954Z,11.28
2023-11-12T13:42:59.117Z,11.24
2023-11-12T13:45:26.124Z,11.25
2023-11-12T13:47:55.416Z,11.20
2023-11-12T13:50:26.193Z,11.13
2023-11-12T13:52:59.929Z,11.13
2023-11-12T13:55:30.404Z,11.11
2023-11-12T13:57:59.938Z,11.10
2023-11-12T14:00:31.820Z,11.07
2023-11-12T14:03:02.139Z,11.06
2023-11-12T14:05:29.511Z,11.04
2023-11-12T14:07:57.245Z,11.02
2023-11-12T14:10:26.386Z,11.03
2023-11-12T14:12:53.926Z,11.00
2023-11-12T14:15:23.275Z,11.00
2023-11-12T14:17:50.505Z,10.92
2023-11-12T14:20:26.525Z,10.87
2023-11-12T14:22:56.328Z,10.84
2023-11-12T14:25:24.262Z,10.83
2023-11-12T14:27:51.638Z,10.78
2023-11-12T14:30:19.862Z,10.75
2023-11-12T14:32:47.526Z,10.71
2023-11-12T14:35:17.487Z,10.69
2023-11-12T14:37:45.399Z,10.62
2023-11-12T14:40:13.011Z,10.58
2023-11-12T14:42:40.827Z,10.55
2023-11-12T14:45:18.222Z,10.55
2023-11-12T14:47:53.379Z,10.53
2023-11-12T14:50:21.504Z,10.54
2023-11-12T14:52:48.480Z,10.52
2023-11-12T14:55:24.424Z,10.52
2023-11-12T14:57:56.248Z,10.49
2023-11-12T15:00:31.474Z,10.46
2023-11-12T15:03:00.802Z,10.44
2023-11-12T15:05:31.864Z,10.40
2023-11-12T15:07:58.832Z,10.38
2023-11-12T15:10:25.868Z,10.32
2023-11-12T15:12:52.888Z,10.26
2023-11-12T15:15:21.613Z,10.22
2023-11-12T15:17:49.502Z,10.15
2023-11-12T15:20:17.657Z,10.08
2023-11-12T15:22:46.793Z,10.05
2023-11-12T15:25:17.297Z,10.02
2023-11-12T15:27:47.474Z,9.94
2023-11-12T15:30:15.155Z,9.91
2023-11-12T15:32:43.626Z,9.88
2023-11-12T15:35:15.322Z,9.85
2023-11-12T15:37:43.036Z,9.84
2023-11-12T15:40:21.888Z,9.79
2023-11-12T15:42:56.638Z,9.72
2023-11-12T15:45:26.716Z,9.69
2023-11-12T15:47:54.497Z,9.66
2023-11-12T15:50:31.208Z,9.60
2023-11-12T15:53:00.048Z,9.55
2023-11-12T15:55:28.234Z,9.51
2023-11-12T15:57:55.147Z,9.47
2023-11-12T16:00:22.082Z,9.48
2023-11-12T16:02:52.744Z,9.42
2023-11-12T16:05:21.750Z,9.37
2023-11-12T16:07:49.680Z,9.30
2023-11-12T16:10:17.675Z,9.26
2023-11-12T16:12:45.587Z,9.23
2023-11-12T16:15:14.045Z,9.19
2023-11-12T16:17:42.096Z,9.17
2023-11-12T16:20:10.412Z,9.10
2023-11-12T16:22:38.962Z,9.03
2023-11-12T16:25:09.287Z,8.98
2023-11-12T16:27:36.488Z,8.97
2023-11-12T16:30:04.336Z,8.93
2023-11-12T16:32:31.675Z,8.92
2023-11-12T16:34:58.538Z,8.90
2023-11-12T16:37:25.600Z,8.89
2023-11-12T16:39:52.620Z,8.87
2023-11-12T16:42:21.749Z,8.80
2023-11-12T16:44:49.048Z,8.76
2023-11-12T16:47:21.879Z,8.72
2023-11-12T16:49:49.004Z,8.67
2023-11-12T16:52:16.019Z,8.68
2023-11-12T16:54:42.957Z,8.66
2023-11-12T16:57:11.228Z,8.64
2023-11-12T16:59:42.219Z,8.58
2023-11-12T17:02:10.738Z,8.51
2023-11-12T17:04:39.506Z,8.45
2023-11-12T17:07:12.124Z,8.37
2023-11-12T17:09:40.468Z,8.29
2023-11-12T17:12:07.872Z,8.24
2023-11-12T17:14:35.038Z,8.20
2023-11-12T17:17:01.896Z,8.16
2023-11-12T17:19:29.179Z,8.10
2023-11-12T17:21:57.947Z,8.04
2023-11-12T17:24:25.132Z,7.96
2023-11-12T17:26:52.128Z,7.90
2023-11-12T17:29:19.446Z,7.81
2023-11-12T17:31:46.298Z,7.74
2023-11-12T17:34:15.122Z,7.62
2023-11-12T17:36:42.204Z,7.57
2023-11-12T17:39:10.899Z,7.57
2023-11-12T17:41:38.144Z,7.58
2023-11-12T17:44:05.503Z,7.57
2023-11-12T17:46:32.945Z,7.56
2023-11-12T17:49:02.148Z,7.52
2023-11-12T17:51:29.207Z,7.51
2023-11-12T17:53:56.131Z,7.51
2023-11-12T17:56:23.418Z,7.49
2023-11-12T17:58:51.228Z,7.48
2023-11-12T18:01:19.704Z,7.45
2023-11-12T18:03:50.146Z,7.43
2023-11-12T18:06:19.925Z,7.36
2023-11-12T18:08:47.042Z,7.32
2023-11-12T18:11:17.341Z,7.32
2023-11-12T18:13:45.728Z,7.28
2023-11-12T18:16:13.758Z,7.27
2023-11-12T18:18:42.332Z,7.27
2023-11-12T18:21:09.499Z,7.30
2023-11-12T18:23:38.314Z,7.26
2023-11-12T18:26:05.364Z,7.23
2023-11-12T18:28:36.429Z,7.22
2023-11-12T18:31:03.624Z,7.18
2023-11-12T18:33:30.566Z,7.16
2023-11-12T18:35:57.770Z,7.17
2023-11-12T18:38:24.592Z,7.13
2023-11-12T18:40:52.062Z,7.11
2023-11-12T18:43:19.242Z,7.16
2023-11-12T18:45:46.129Z,7.09
2023-11-12T18:48:13.777Z,7.10
2023-11-12T18:50:41.130Z,7.07
2023-11-12T18:53:08.464Z,7.06
2023-11-12T18:55:35.463Z,7.03
2023-11-12T18:58:02.438Z,6.98
2023-11-12T19:00:29.343Z,6.95
2023-11-12T19:02:56.313Z,6.92
2023-11-12T19:05:23.470Z,6.82
2023-11-12T19:07:50.520Z,6.76
2023-11-12T19:10:23.518Z,6.72
2023-11-12T19:12:50.909Z,6.72
2023-11-12T19:15:18.020Z,6.70
2023-11-12T19:17:45.910Z,6.69
2023-11-12T19:20:14.636Z,6.66
2023-11-12T19:22:42.703Z,6.67
2023-11-12T19:25:11.625Z,6.63
2023-11-12T19:27:40.098Z,6.64
2023-11-12T19:30:13.994Z,6.69
2023-11-12T19:32:43.400Z,6.87
2023-11-12T19:35:10.553Z,6.78
2023-11-12T19:37:39.234Z,6.80
2023-11-12T19:40:09.820Z,6.80
2023-11-12T19:42:37.238Z,6.80
2023-11-12T19:45:06.713Z,6.85
2023-11-12T19:47:34.446Z,6.93
2023-11-12T19:50:01.742Z,6.94
2023-11-12T19:52:31.340Z,6.98
2023-11-12T19:54:58.285Z,7.05
2023-11-12T19:57:27.672Z,7.05
2023-11-12T19:59:56.733Z,7.08
2023-11-12T20:02:23.655Z,7.09
2023-11-12T20:04:51.828Z,7.09
2023-11-12T20:07:18.653Z,7.14
2023-11-12T20:09:46.767Z,7.14
2023-11-12T20:12:13.773Z,7.20
2023-11-12T20:14:40.698Z,7.22
2023-11-12T20:17:11.813Z,7.20
2023-11-12T20:19:41.171Z,7.19
2023-11-12T20:22:08.508Z,7.22
2023-11-12T20:24:38.542Z,7.27
2023-11-12T20:27:10.318Z,7.24
2023-11-12T20:29:37.675Z,7.20
2023-11-12T20:32:04.862Z,7.14
2023-11-12T20:34:32.388Z,7.06
2023-11-12T20:37:00.423Z,7.04
2023-11-12T20:39:27.504Z,6.96
2023-11-12T20:41:56.332Z,6.92
2023-11-12T20:44:23.349Z,6.84
2023-11-12T20:46:50.255Z,6.77
2023-11-12T20:49:18.667Z,6.67
2023-11-12T20:51:47.304Z,6.64
2023-11-12T20:54:16.661Z,6.60
2023-11-12T20:56:43.714Z,6.53
2023-11-12T20:59:11.293Z,6.47
2023-11-12T21:01:39.057Z,6.39
2023-11-12T21:04:11.067Z,6.34
2023-11-12T21:06:40.364Z,6.26
2023-11-12T21:09:09.908Z,6.23
2023-11-12T21:11:41.083Z,6.17
2023-11-12T21:14:12.712Z,6.08
2023-11-12T21:16:41.201Z,6.02
2023-11-12T21:19:10.030Z,5.94
2023-11-12T21:21:39.108Z,5.89
2023-11-12T21:24:07.064Z,5.87
2023-11-12T21:26:37.310Z,5.89
2023-11-12T21:29:04.133Z,5.90
2023-11-12T21:31:31.087Z,5.83
2023-11-12T21:33:58.167Z,5.79
2023-11-12T21:36:25.028Z,5.75
2023-11-12T21:38:53.746Z,5.68
2023-11-12T21:41:20.754Z,5.64
2023-11-12T21:43:47.661Z,5.59
2023-11-12T21:46:17.049Z,5.54
2023-11-12T21:48:44.279Z,5.55
2023-11-12T21:51:11.305Z,5.52
2023-11-12T21:53:38.892Z,5.47
2023-11-12T21:56:08.728Z,5.45
2023-11-12T21:58:36.514Z,5.46
2023-11-12T22:01:03.579Z,5.43
2023-11-12T22:03:30.944Z,5.46
2023-11-12T22:05:58.003Z,5.42
2023-11-12T22:08:24.881Z,5.38
2023-11-12T22:10:51.802Z,5.38
2023-11-12T22:13:21.559Z,5.32
2023-11-12T22:15:49.205Z,5.27
2023-11-12T22:18:16.358Z,5.24
2023-11-12T22:20:43.337Z,5.20
2023-11-12T22:23:12.233Z,5.16
2023-11-12T22:25:40.270Z,5.15
2023-11-12T22:28:07.630Z,5.10
2023-11-12T22:30:34.622Z,5.10
2023-11-12T22:33:01.648Z,5.14
2023-11-12T22:35:28.590Z,5.06
2023-11-12T22:37:55.524Z,5.09
2023-11-12T22:40:24.620Z,5.04
2023-11-12T22:42:53.237Z,5.02
2023-11-12T22:45:20.799Z,4.99
2023-11-12T22:47:48.358Z,4.97
2023-11-12T22:50:18.509Z,4.91
2023-11-12T22:52:45.554Z,4.88
2023-11-12T22:55:13.212Z,4.88
2023-11-12T22:57:41.230Z,4.92
2023-11-12T23:00:36.891Z,4.86
2023-11-12T23:03:10.247Z,4.82
2023-11-12T23:05:37.607Z,4.84
2023-11-12T23:08:07.530Z,4.83
2023-11-12T23:10:35.312Z,4.83
2023-11-12T23:13:02.819Z,4.79
2023-11-12T23:15:29.895Z,4.85
2023-11-12T23:17:59.792Z,4.84
2023-11-12T23:20:26.743Z,4.85
2023-11-12T23:22:53.682Z,4.80
2023-11-12T23:25:20.761Z,4.78
2023-11-12T23:27:47.903Z,4.80
2023-11-12T23:30:15.341Z,4.77
2023-11-12T23:32:45.826Z,4.67
2023-11-12T23:35:12.737Z,4.63
2023-11-12T23:37:39.796Z,4.66
2023-11-12T23:40:08.439Z,4.65
2023-11-12T23:42:37.610Z,4.61
2023-11-12T23:45:08.843Z,4.60
2023-11-12T23:47:36.862Z,4.57
2023-11-12T23:50:05.105Z,4.60
2023-11-12T23:52:34.079Z,4.55
2023-11-12T23:55:01.006Z,4.56
2023-11-12T23:57:28.305Z,4.59
2023-11-12T23:59:55.175Z,4.57
